Aérodrome :
LOGIN :

S'inscrire | Disclaimer

   EN    FR    IT 

 










Légende :    VFR   VFR Marginal   IFR   IFR Intensif   IFR Très Intensif
Visi : 
Plafond : 
>= 8 km
>= 3000ft
5 à 8 km
1000 à 3000 ft
1500m à 5 km
500 à 1000 ft
800 à 1500m
200 à 500 ft
< 800m
< 200 ft
Symboles :   Orages  Brouillard  Fortes neiges  Fortes précipitations  Vent > 20 kt
SIGMETs :   Divers  Orages  Givrage  Turbulence  Onde Orograph.  Cendres Volcan.







- Altitude de l'aérodrome : 313 ft
- Code IATA : LEH
- Voir les cartes d'approche


LFOH - Le Havre Octeville

DERNIER METAR :
  • 210000Z AUTO 22008KT 9999 OVC027 17/13 Q1023

METARs EXPIRÉS :
  • 202330Z AUTO VRB01KT 9999 BKN033 OVC042 17/12 Q1023
  • 202300Z AUTO VRB03KT 9999 OVC038 18/12 Q1024
  • 202230Z AUTO 11004KT 080V140 9999 OVC040 18/12 Q1024
  • 202200Z AUTO VRB02KT 9999 OVC040 17/12 Q1024

TAF TAF LFOH
Valide du 20 à 12h jusqu'au 21 à 12h UTC


201100Z 2012/2112 VRB03KT 9999 SCT025
BECMG 2022/2024 15010KT
BECMG 2102/2104 23010KT OVC013
TEMPO 2104/2112 4000 RA OVC005
ATIS : +33 2 35 54 64 93
Pas de NOTAMs connus pour ce terrain.



MET'MAP, la Météo Aéronautique d'un coup d'oeil ! - Copyright ORBIFLY Décembre 2007 - Disclaimer

ORBIFLY MET'MAP TEAM :

Programmation & Développement : Alexandra Zaïnal
Conception & Développement : Baudouin d'Aumeries
Co-Programmation & Développement : Marc-Olivier Méhu
Soutien technique & logistique : Manuel Goepfert

Contact : metmap@orbifly.com




SOURCES & CREDITS :

   NOAA